sensor_id;sensor_type;location;lat;lon;timestamp;P1;durP1;ratioP1;P2;durP2;ratioP2
21424;SDS011;10873;51.132;16.848;2023-05-09T00:02:14;7.22;;;5.03;;
21424;SDS011;10873;51.132;16.848;2023-05-09T00:04:40;7.22;;;5.00;;
21424;SDS011;10873;51.132;16.848;2023-05-09T00:07:06;7.38;;;4.85;;
21424;SDS011;10873;51.132;16.848;2023-05-09T00:09:35;8.05;;;4.60;;
21424;SDS011;10873;51.132;16.848;2023-05-09T00:12:00;6.43;;;4.57;;
21424;SDS011;10873;51.132;16.848;2023-05-09T00:14:28;7.90;;;5.20;;
21424;SDS011;10873;51.132;16.848;2023-05-09T00:16:54;5.07;;;4.28;;
21424;SDS011;10873;51.132;16.848;2023-05-09T00:19:23;7.13;;;4.68;;
21424;SDS011;10873;51.132;16.848;2023-05-09T00:21:49;6.43;;;4.82;;
21424;SDS011;10873;51.132;16.848;2023-05-09T00:24:16;9.38;;;4.95;;
21424;SDS011;10873;51.132;16.848;2023-05-09T00:26:42;8.65;;;5.10;;
21424;SDS011;10873;51.132;16.848;2023-05-09T00:29:08;7.13;;;5.20;;
21424;SDS011;10873;51.132;16.848;2023-05-09T00:31:35;8.52;;;5.32;;
21424;SDS011;10873;51.132;16.848;2023-05-09T00:34:01;7.78;;;5.20;;
21424;SDS011;10873;51.132;16.848;2023-05-09T00:36:27;8.02;;;5.30;;
21424;SDS011;10873;51.132;16.848;2023-05-09T00:38:54;7.60;;;5.07;;
21424;SDS011;10873;51.132;16.848;2023-05-09T00:41:19;7.00;;;5.50;;
21424;SDS011;10873;51.132;16.848;2023-05-09T00:43:46;9.88;;;5.88;;
21424;SDS011;10873;51.132;16.848;2023-05-09T00:46:12;7.57;;;5.30;;
21424;SDS011;10873;51.132;16.848;2023-05-09T00:48:39;6.28;;;4.70;;
21424;SDS011;10873;51.132;16.848;2023-05-09T00:51:05;9.35;;;5.68;;
21424;SDS011;10873;51.132;16.848;2023-05-09T00:53:32;8.50;;;5.78;;
21424;SDS011;10873;51.132;16.848;2023-05-09T00:55:58;9.20;;;5.75;;
21424;SDS011;10873;51.132;16.848;2023-05-09T00:58:25;8.25;;;5.60;;
21424;SDS011;10873;51.132;16.848;2023-05-09T01:00:51;9.23;;;5.65;;
21424;SDS011;10873;51.132;16.848;2023-05-09T01:03:17;7.22;;;5.07;;
21424;SDS011;10873;51.132;16.848;2023-05-09T01:05:47;8.02;;;5.50;;
21424;SDS011;10873;51.132;16.848;2023-05-09T01:08:24;7.40;;;5.47;;
21424;SDS011;10873;51.132;16.848;2023-05-09T01:11:00;8.68;;;5.45;;
21424;SDS011;10873;51.132;16.848;2023-05-09T01:13:31;7.25;;;5.22;;
21424;SDS011;10873;51.132;16.848;2023-05-09T01:16:03;7.82;;;5.28;;
21424;SDS011;10873;51.132;16.848;2023-05-09T01:18:36;7.25;;;5.20;;
21424;SDS011;10873;51.132;16.848;2023-05-09T01:21:09;7.57;;;5.13;;
21424;SDS011;10873;51.132;16.848;2023-05-09T01:26:35;9.43;;;4.93;;
21424;SDS011;10873;51.132;16.848;2023-05-09T01:29:19;7.07;;;4.70;;
21424;SDS011;10873;51.132;16.848;2023-05-09T01:31:56;8.05;;;5.18;;
21424;SDS011;10873;51.132;16.848;2023-05-09T01:34:25;6.85;;;4.78;;
21424;SDS011;10873;51.132;16.848;2023-05-09T01:36:53;8.15;;;4.72;;
21424;SDS011;10873;51.132;16.848;2023-05-09T01:39:23;9.15;;;4.78;;
21424;SDS011;10873;51.132;16.848;2023-05-09T01:41:51;6.47;;;4.72;;
21424;SDS011;10873;51.132;16.848;2023-05-09T01:44:21;7.38;;;4.75;;
21424;SDS011;10873;51.132;16.848;2023-05-09T01:46:51;6.25;;;4.47;;
21424;SDS011;10873;51.132;16.848;2023-05-09T01:49:18;5.53;;;4.18;;
21424;SDS011;10873;51.132;16.848;2023-05-09T01:51:46;6.38;;;4.50;;
21424;SDS011;10873;51.132;16.848;2023-05-09T01:54:13;7.57;;;5.00;;
21424;SDS011;10873;51.132;16.848;2023-05-09T01:56:42;6.38;;;3.97;;
21424;SDS011;10873;51.132;16.848;2023-05-09T01:59:10;5.93;;;4.28;;
21424;SDS011;10873;51.132;16.848;2023-05-09T02:01:41;7.00;;;4.15;;
21424;SDS011;10873;51.132;16.848;2023-05-09T02:04:11;6.80;;;4.13;;
21424;SDS011;10873;51.132;16.848;2023-05-09T02:06:40;8.57;;;4.57;;
21424;SDS011;10873;51.132;16.848;2023-05-09T02:09:09;5.95;;;4.43;;
21424;SDS011;10873;51.132;16.848;2023-05-09T02:11:35;5.40;;;4.13;;
21424;SDS011;10873;51.132;16.848;2023-05-09T02:14:01;6.97;;;4.40;;
21424;SDS011;10873;51.132;16.848;2023-05-09T02:16:27;5.85;;;4.20;;
21424;SDS011;10873;51.132;16.848;2023-05-09T02:18:56;7.30;;;3.85;;
21424;SDS011;10873;51.132;16.848;2023-05-09T02:21:22;5.55;;;4.28;;
21424;SDS011;10873;51.132;16.848;2023-05-09T02:23:48;4.47;;;3.85;;
21424;SDS011;10873;51.132;16.848;2023-05-09T02:26:14;5.05;;;3.90;;
21424;SDS011;10873;51.132;16.848;2023-05-09T02:28:40;6.93;;;4.35;;
21424;SDS011;10873;51.132;16.848;2023-05-09T02:31:08;6.22;;;4.10;;
21424;SDS011;10873;51.132;16.848;2023-05-09T02:33:36;6.25;;;4.00;;
21424;SDS011;10873;51.132;16.848;2023-05-09T02:36:05;6.20;;;4.18;;
21424;SDS011;10873;51.132;16.848;2023-05-09T02:38:33;5.22;;;4.40;;
21424;SDS011;10873;51.132;16.848;2023-05-09T02:40:59;5.78;;;4.22;;
21424;SDS011;10873;51.132;16.848;2023-05-09T02:43:25;6.10;;;3.83;;
21424;SDS011;10873;51.132;16.848;2023-05-09T02:45:52;4.68;;;3.80;;
21424;SDS011;10873;51.132;16.848;2023-05-09T02:48:18;6.90;;;4.32;;
21424;SDS011;10873;51.132;16.848;2023-05-09T02:50:44;5.43;;;4.10;;
21424;SDS011;10873;51.132;16.848;2023-05-09T02:53:12;5.40;;;3.90;;
21424;SDS011;10873;51.132;16.848;2023-05-09T02:55:38;5.90;;;4.15;;
21424;SDS011;10873;51.132;16.848;2023-05-09T02:58:04;5.18;;;3.65;;
21424;SDS011;10873;51.132;16.848;2023-05-09T03:00:30;6.53;;;3.88;;
21424;SDS011;10873;51.132;16.848;2023-05-09T03:02:56;5.70;;;4.00;;
21424;SDS011;10873;51.132;16.848;2023-05-09T03:05:24;6.78;;;4.18;;
21424;SDS011;10873;51.132;16.848;2023-05-09T03:07:50;8.25;;;4.40;;
21424;SDS011;10873;51.132;16.848;2023-05-09T03:10:18;5.65;;;4.03;;
21424;SDS011;10873;51.132;16.848;2023-05-09T03:12:44;5.15;;;3.80;;
21424;SDS011;10873;51.132;16.848;2023-05-09T03:15:10;7.75;;;4.28;;
21424;SDS011;10873;51.132;16.848;2023-05-09T03:17:36;6.55;;;4.45;;
21424;SDS011;10873;51.132;16.848;2023-05-09T03:20:03;6.68;;;3.92;;
21424;SDS011;10873;51.132;16.848;2023-05-09T03:22:30;6.07;;;4.30;;
21424;SDS011;10873;51.132;16.848;2023-05-09T03:24:56;5.60;;;4.03;;
21424;SDS011;10873;51.132;16.848;2023-05-09T03:27:24;7.55;;;4.28;;
21424;SDS011;10873;51.132;16.848;2023-05-09T03:29:50;6.22;;;4.43;;
21424;SDS011;10873;51.132;16.848;2023-05-09T03:32:17;7.32;;;4.30;;
21424;SDS011;10873;51.132;16.848;2023-05-09T03:34:43;5.25;;;4.10;;
21424;SDS011;10873;51.132;16.848;2023-05-09T03:37:09;5.57;;;4.43;;
21424;SDS011;10873;51.132;16.848;2023-05-09T03:39:35;5.82;;;4.32;;
21424;SDS011;10873;51.132;16.848;2023-05-09T03:42:01;5.68;;;3.80;;
21424;SDS011;10873;51.132;16.848;2023-05-09T03:44:28;5.78;;;4.25;;
21424;SDS011;10873;51.132;16.848;2023-05-09T03:46:55;5.40;;;3.95;;
21424;SDS011;10873;51.132;16.848;2023-05-09T03:49:21;6.32;;;4.38;;
21424;SDS011;10873;51.132;16.848;2023-05-09T03:51:47;5.55;;;3.90;;
21424;SDS011;10873;51.132;16.848;2023-05-09T03:54:13;6.68;;;4.50;;
21424;SDS011;10873;51.132;16.848;2023-05-09T03:56:39;6.25;;;4.13;;
21424;SDS011;10873;51.132;16.848;2023-05-09T03:59:06;8.35;;;4.35;;
21424;SDS011;10873;51.132;16.848;2023-05-09T04:01:33;5.60;;;3.60;;
21424;SDS011;10873;51.132;16.848;2023-05-09T04:04:04;6.68;;;3.85;;
21424;SDS011;10873;51.132;16.848;2023-05-09T04:06:30;5.78;;;4.00;;
21424;SDS011;10873;51.132;16.848;2023-05-09T04:08:57;9.52;;;5.40;;
21424;SDS011;10873;51.132;16.848;2023-05-09T04:11:23;6.45;;;4.70;;
21424;SDS011;10873;51.132;16.848;2023-05-09T04:13:49;7.85;;;4.85;;
21424;SDS011;10873;51.132;16.848;2023-05-09T04:16:18;7.50;;;4.82;;
21424;SDS011;10873;51.132;16.848;2023-05-09T04:18:45;6.97;;;4.32;;
21424;SDS011;10873;51.132;16.848;2023-05-09T04:21:11;18.17;;;4.82;;
21424;SDS011;10873;51.132;16.848;2023-05-09T04:23:37;14.57;;;5.60;;
21424;SDS011;10873;51.132;16.848;2023-05-09T04:26:04;19.58;;;5.80;;
21424;SDS011;10873;51.132;16.848;2023-05-09T04:28:30;14.48;;;5.90;;
21424;SDS011;10873;51.132;16.848;2023-05-09T04:30:56;19.73;;;6.28;;
21424;SDS011;10873;51.132;16.848;2023-05-09T04:33:22;18.50;;;6.25;;
21424;SDS011;10873;51.132;16.848;2023-05-09T04:35:50;16.33;;;5.20;;
21424;SDS011;10873;51.132;16.848;2023-05-09T04:38:16;13.63;;;5.35;;
21424;SDS011;10873;51.132;16.848;2023-05-09T04:40:42;11.73;;;5.75;;
21424;SDS011;10873;51.132;16.848;2023-05-09T04:43:08;10.00;;;6.18;;
21424;SDS011;10873;51.132;16.848;2023-05-09T04:45:35;9.52;;;5.65;;
21424;SDS011;10873;51.132;16.848;2023-05-09T04:48:01;10.43;;;5.90;;
21424;SDS011;10873;51.132;16.848;2023-05-09T04:50:27;14.73;;;6.07;;
21424;SDS011;10873;51.132;16.848;2023-05-09T04:52:54;27.90;;;6.45;;
21424;SDS011;10873;51.132;16.848;2023-05-09T04:55:21;12.88;;;5.13;;
21424;SDS011;10873;51.132;16.848;2023-05-09T04:57:47;21.25;;;5.10;;
21424;SDS011;10873;51.132;16.848;2023-05-09T05:00:13;18.27;;;5.13;;
21424;SDS011;10873;51.132;16.848;2023-05-09T05:02:40;14.82;;;5.13;;
21424;SDS011;10873;51.132;16.848;2023-05-09T05:05:07;17.08;;;5.53;;
21424;SDS011;10873;51.132;16.848;2023-05-09T05:07:38;10.48;;;4.70;;
21424;SDS011;10873;51.132;16.848;2023-05-09T05:10:08;10.65;;;4.68;;
21424;SDS011;10873;51.132;16.848;2023-05-09T05:12:34;13.23;;;4.38;;
21424;SDS011;10873;51.132;16.848;2023-05-09T05:15:01;11.55;;;4.50;;
21424;SDS011;10873;51.132;16.848;2023-05-09T05:17:27;10.70;;;4.25;;
21424;SDS011;10873;51.132;16.848;2023-05-09T05:19:53;11.35;;;4.25;;
21424;SDS011;10873;51.132;16.848;2023-05-09T05:22:20;12.68;;;4.57;;
21424;SDS011;10873;51.132;16.848;2023-05-09T05:24:46;11.90;;;4.60;;
21424;SDS011;10873;51.132;16.848;2023-05-09T05:27:16;10.90;;;3.75;;
21424;SDS011;10873;51.132;16.848;2023-05-09T05:29:44;13.55;;;3.80;;
21424;SDS011;10873;51.132;16.848;2023-05-09T05:32:10;10.35;;;4.07;;
21424;SDS011;10873;51.132;16.848;2023-05-09T05:34:36;11.82;;;4.25;;
21424;SDS011;10873;51.132;16.848;2023-05-09T05:37:03;8.65;;;3.85;;
21424;SDS011;10873;51.132;16.848;2023-05-09T05:39:30;14.88;;;4.10;;
21424;SDS011;10873;51.132;16.848;2023-05-09T05:41:55;14.75;;;3.95;;
21424;SDS011;10873;51.132;16.848;2023-05-09T05:44:26;9.13;;;4.28;;
21424;SDS011;10873;51.132;16.848;2023-05-09T05:46:52;11.80;;;4.25;;
21424;SDS011;10873;51.132;16.848;2023-05-09T05:49:19;13.55;;;3.72;;
21424;SDS011;10873;51.132;16.848;2023-05-09T05:51:45;11.88;;;4.10;;
21424;SDS011;10873;51.132;16.848;2023-05-09T05:54:11;11.60;;;4.30;;
21424;SDS011;10873;51.132;16.848;2023-05-09T05:56:37;12.75;;;4.20;;
21424;SDS011;10873;51.132;16.848;2023-05-09T05:59:03;12.82;;;3.60;;
21424;SDS011;10873;51.132;16.848;2023-05-09T06:01:30;10.48;;;4.13;;
21424;SDS011;10873;51.132;16.848;2023-05-09T06:03:57;9.07;;;3.67;;
21424;SDS011;10873;51.132;16.848;2023-05-09T06:06:23;9.05;;;3.63;;
21424;SDS011;10873;51.132;16.848;2023-05-09T06:08:50;7.65;;;3.30;;
21424;SDS011;10873;51.132;16.848;2023-05-09T06:11:17;15.00;;;3.80;;
21424;SDS011;10873;51.132;16.848;2023-05-09T06:13:43;7.43;;;3.47;;
21424;SDS011;10873;51.132;16.848;2023-05-09T06:16:09;10.80;;;3.90;;
21424;SDS011;10873;51.132;16.848;2023-05-09T06:18:37;10.43;;;4.38;;
21424;SDS011;10873;51.132;16.848;2023-05-09T06:21:04;13.07;;;4.25;;
21424;SDS011;10873;51.132;16.848;2023-05-09T06:23:31;12.43;;;3.92;;
21424;SDS011;10873;51.132;16.848;2023-05-09T06:25:57;18.48;;;3.72;;
21424;SDS011;10873;51.132;16.848;2023-05-09T06:28:23;11.02;;;3.88;;
21424;SDS011;10873;51.132;16.848;2023-05-09T06:30:49;11.63;;;3.60;;
21424;SDS011;10873;51.132;16.848;2023-05-09T06:33:15;12.68;;;3.95;;
21424;SDS011;10873;51.132;16.848;2023-05-09T06:35:42;8.52;;;3.58;;
21424;SDS011;10873;51.132;16.848;2023-05-09T06:38:12;12.80;;;3.55;;
21424;SDS011;10873;51.132;16.848;2023-05-09T06:40:42;9.82;;;3.70;;
21424;SDS011;10873;51.132;16.848;2023-05-09T06:43:09;11.18;;;3.65;;
21424;SDS011;10873;51.132;16.848;2023-05-09T06:45:34;6.53;;;3.30;;
21424;SDS011;10873;51.132;16.848;2023-05-09T06:48:01;9.63;;;3.47;;
21424;SDS011;10873;51.132;16.848;2023-05-09T06:50:27;8.02;;;3.70;;
21424;SDS011;10873;51.132;16.848;2023-05-09T06:52:55;11.43;;;3.55;;
21424;SDS011;10873;51.132;16.848;2023-05-09T06:55:21;11.70;;;3.75;;
21424;SDS011;10873;51.132;16.848;2023-05-09T06:57:49;8.45;;;3.85;;
21424;SDS011;10873;51.132;16.848;2023-05-09T07:00:18;9.05;;;3.33;;
21424;SDS011;10873;51.132;16.848;2023-05-09T07:02:52;7.20;;;3.80;;
21424;SDS011;10873;51.132;16.848;2023-05-09T07:05:22;9.50;;;3.58;;
21424;SDS011;10873;51.132;16.848;2023-05-09T07:07:56;10.45;;;3.58;;
21424;SDS011;10873;51.132;16.848;2023-05-09T07:10:38;10.90;;;3.17;;
21424;SDS011;10873;51.132;16.848;2023-05-09T07:13:18;11.90;;;3.50;;
21424;SDS011;10873;51.132;16.848;2023-05-09T07:15:46;7.72;;;3.10;;
21424;SDS011;10873;51.132;16.848;2023-05-09T07:18:12;7.97;;;3.78;;
21424;SDS011;10873;51.132;16.848;2023-05-09T07:20:38;8.82;;;3.10;;
21424;SDS011;10873;51.132;16.848;2023-05-09T07:23:07;6.38;;;3.35;;
21424;SDS011;10873;51.132;16.848;2023-05-09T07:25:56;22.63;;;4.70;;
21424;SDS011;10873;51.132;16.848;2023-05-09T07:28:28;9.95;;;3.65;;
21424;SDS011;10873;51.132;16.848;2023-05-09T07:30:55;10.48;;;3.75;;
21424;SDS011;10873;51.132;16.848;2023-05-09T07:33:21;9.48;;;3.60;;
21424;SDS011;10873;51.132;16.848;2023-05-09T07:35:47;9.40;;;3.28;;
21424;SDS011;10873;51.132;16.848;2023-05-09T07:38:25;8.30;;;3.08;;
21424;SDS011;10873;51.132;16.848;2023-05-09T07:40:51;5.75;;;3.40;;
21424;SDS011;10873;51.132;16.848;2023-05-09T07:43:20;6.18;;;2.80;;
21424;SDS011;10873;51.132;16.848;2023-05-09T07:45:47;9.02;;;2.67;;
21424;SDS011;10873;51.132;16.848;2023-05-09T07:48:13;4.93;;;2.70;;
21424;SDS011;10873;51.132;16.848;2023-05-09T07:50:45;4.80;;;2.60;;
21424;SDS011;10873;51.132;16.848;2023-05-09T07:53:15;6.97;;;2.75;;
21424;SDS011;10873;51.132;16.848;2023-05-09T07:55:41;5.43;;;2.75;;
21424;SDS011;10873;51.132;16.848;2023-05-09T07:58:09;5.85;;;2.78;;
21424;SDS011;10873;51.132;16.848;2023-05-09T08:00:35;5.03;;;2.75;;
21424;SDS011;10873;51.132;16.848;2023-05-09T08:03:02;5.90;;;2.55;;
21424;SDS011;10873;51.132;16.848;2023-05-09T08:05:28;7.18;;;2.47;;
21424;SDS011;10873;51.132;16.848;2023-05-09T08:07:54;4.07;;;2.47;;
21424;SDS011;10873;51.132;16.848;2023-05-09T08:10:21;5.78;;;2.60;;
21424;SDS011;10873;51.132;16.848;2023-05-09T08:12:48;3.70;;;2.33;;
21424;SDS011;10873;51.132;16.848;2023-05-09T08:15:16;8.80;;;2.47;;
21424;SDS011;10873;51.132;16.848;2023-05-09T08:17:42;2.92;;;2.20;;
21424;SDS011;10873;51.132;16.848;2023-05-09T08:20:09;3.75;;;2.10;;
21424;SDS011;10873;51.132;16.848;2023-05-09T08:22:37;3.72;;;2.30;;
21424;SDS011;10873;51.132;16.848;2023-05-09T08:25:05;2.92;;;2.35;;
21424;SDS011;10873;51.132;16.848;2023-05-09T08:27:34;5.40;;;2.20;;
21424;SDS011;10873;51.132;16.848;2023-05-09T08:30:02;3.95;;;2.10;;
21424;SDS011;10873;51.132;16.848;2023-05-09T08:32:29;3.75;;;2.28;;
21424;SDS011;10873;51.132;16.848;2023-05-09T08:34:55;4.50;;;2.38;;
21424;SDS011;10873;51.132;16.848;2023-05-09T08:37:22;3.60;;;2.28;;
21424;SDS011;10873;51.132;16.848;2023-05-09T08:39:50;4.95;;;2.20;;
21424;SDS011;10873;51.132;16.848;2023-05-09T08:42:17;4.97;;;2.20;;
21424;SDS011;10873;51.132;16.848;2023-05-09T08:44:48;5.55;;;2.53;;
21424;SDS011;10873;51.132;16.848;2023-05-09T08:47:14;3.33;;;2.30;;
21424;SDS011;10873;51.132;16.848;2023-05-09T08:49:40;5.03;;;2.33;;
21424;SDS011;10873;51.132;16.848;2023-05-09T08:52:08;4.28;;;2.53;;
21424;SDS011;10873;51.132;16.848;2023-05-09T08:54:36;4.55;;;2.53;;
21424;SDS011;10873;51.132;16.848;2023-05-09T08:57:02;3.78;;;2.25;;
21424;SDS011;10873;51.132;16.848;2023-05-09T08:59:29;3.20;;;2.25;;
21424;SDS011;10873;51.132;16.848;2023-05-09T09:02:01;3.78;;;2.00;;
21424;SDS011;10873;51.132;16.848;2023-05-09T09:04:31;2.50;;;2.30;;
21424;SDS011;10873;51.132;16.848;2023-05-09T09:06:57;3.50;;;2.30;;
21424;SDS011;10873;51.132;16.848;2023-05-09T09:09:25;3.88;;;2.30;;
21424;SDS011;10873;51.132;16.848;2023-05-09T09:11:52;3.08;;;1.90;;
21424;SDS011;10873;51.132;16.848;2023-05-09T09:14:22;3.10;;;2.30;;
21424;SDS011;10873;51.132;16.848;2023-05-09T09:16:53;4.63;;;2.15;;
21424;SDS011;10873;51.132;16.848;2023-05-09T09:19:21;2.45;;;1.98;;
21424;SDS011;10873;51.132;16.848;2023-05-09T09:21:54;4.43;;;1.95;;
21424;SDS011;10873;51.132;16.848;2023-05-09T09:24:23;4.20;;;2.20;;
21424;SDS011;10873;51.132;16.848;2023-05-09T09:26:50;2.80;;;2.08;;
21424;SDS011;10873;51.132;16.848;2023-05-09T09:29:16;7.15;;;2.30;;
21424;SDS011;10873;51.132;16.848;2023-05-09T09:31:43;3.65;;;2.30;;
21424;SDS011;10873;51.132;16.848;2023-05-09T09:34:10;3.05;;;2.08;;
21424;SDS011;10873;51.132;16.848;2023-05-09T09:36:39;3.90;;;2.60;;
21424;SDS011;10873;51.132;16.848;2023-05-09T09:39:05;7.85;;;2.30;;
21424;SDS011;10873;51.132;16.848;2023-05-09T09:41:31;2.50;;;2.10;;
21424;SDS011;10873;51.132;16.848;2023-05-09T09:43:58;6.25;;;2.10;;
21424;SDS011;10873;51.132;16.848;2023-05-09T09:46:30;5.30;;;2.17;;
21424;SDS011;10873;51.132;16.848;2023-05-09T09:49:07;3.25;;;2.28;;
21424;SDS011;10873;51.132;16.848;2023-05-09T09:51:34;4.90;;;2.10;;
21424;SDS011;10873;51.132;16.848;2023-05-09T09:54:01;4.57;;;2.20;;
21424;SDS011;10873;51.132;16.848;2023-05-09T09:56:39;2.70;;;2.13;;
21424;SDS011;10873;51.132;16.848;2023-05-09T09:59:09;3.22;;;2.20;;
21424;SDS011;10873;51.132;16.848;2023-05-09T10:01:56;2.22;;;2.03;;
21424;SDS011;10873;51.132;16.848;2023-05-09T10:04:26;3.25;;;2.22;;
21424;SDS011;10873;51.132;16.848;2023-05-09T10:06:54;5.47;;;2.40;;
21424;SDS011;10873;51.132;16.848;2023-05-09T10:09:22;5.85;;;2.30;;
21424;SDS011;10873;51.132;16.848;2023-05-09T10:11:50;3.40;;;2.25;;
21424;SDS011;10873;51.132;16.848;2023-05-09T10:14:17;3.58;;;2.13;;
21424;SDS011;10873;51.132;16.848;2023-05-09T10:16:45;4.07;;;2.03;;
21424;SDS011;10873;51.132;16.848;2023-05-09T10:19:11;3.50;;;2.40;;
21424;SDS011;10873;51.132;16.848;2023-05-09T10:21:40;4.28;;;2.28;;
21424;SDS011;10873;51.132;16.848;2023-05-09T10:24:07;3.80;;;1.90;;
21424;SDS011;10873;51.132;16.848;2023-05-09T10:26:36;4.53;;;2.35;;
21424;SDS011;10873;51.132;16.848;2023-05-09T10:29:05;6.57;;;1.90;;
21424;SDS011;10873;51.132;16.848;2023-05-09T10:31:35;6.63;;;1.90;;
21424;SDS011;10873;51.132;16.848;2023-05-09T10:34:05;2.30;;;1.80;;
21424;SDS011;10873;51.132;16.848;2023-05-09T10:36:36;2.75;;;1.85;;
21424;SDS011;10873;51.132;16.848;2023-05-09T10:39:02;2.33;;;1.80;;
21424;SDS011;10873;51.132;16.848;2023-05-09T10:41:29;5.18;;;2.30;;
21424;SDS011;10873;51.132;16.848;2023-05-09T10:43:57;3.80;;;1.65;;
21424;SDS011;10873;51.132;16.848;2023-05-09T10:46:24;4.00;;;2.00;;
21424;SDS011;10873;51.132;16.848;2023-05-09T10:48:51;2.55;;;1.80;;
21424;SDS011;10873;51.132;16.848;2023-05-09T10:51:18;3.80;;;1.77;;
21424;SDS011;10873;51.132;16.848;2023-05-09T10:53:45;2.05;;;1.85;;
21424;SDS011;10873;51.132;16.848;2023-05-09T10:56:21;2.63;;;1.80;;
21424;SDS011;10873;51.132;16.848;2023-05-09T10:58:48;2.38;;;1.80;;
21424;SDS011;10873;51.132;16.848;2023-05-09T11:01:17;2.20;;;1.67;;
21424;SDS011;10873;51.132;16.848;2023-05-09T11:03:54;4.78;;;2.13;;
21424;SDS011;10873;51.132;16.848;2023-05-09T11:12:11;2.50;;;1.92;;
21424;SDS011;10873;51.132;16.848;2023-05-09T11:14:39;3.55;;;2.10;;
21424;SDS011;10873;51.132;16.848;2023-05-09T11:17:09;2.65;;;1.92;;
21424;SDS011;10873;51.132;16.848;2023-05-09T11:19:37;5.82;;;1.65;;
21424;SDS011;10873;51.132;16.848;2023-05-09T11:22:23;2.15;;;1.70;;
21424;SDS011;10873;51.132;16.848;2023-05-09T11:24:52;4.25;;;1.70;;
21424;SDS011;10873;51.132;16.848;2023-05-09T11:27:26;2.05;;;1.73;;
21424;SDS011;10873;51.132;16.848;2023-05-09T11:29:53;1.88;;;1.70;;
21424;SDS011;10873;51.132;16.848;2023-05-09T11:32:26;3.38;;;1.80;;
21424;SDS011;10873;51.132;16.848;2023-05-09T11:35:02;2.03;;;1.48;;
21424;SDS011;10873;51.132;16.848;2023-05-09T11:37:30;1.90;;;1.70;;
21424;SDS011;10873;51.132;16.848;2023-05-09T11:39:57;1.90;;;1.60;;
21424;SDS011;10873;51.132;16.848;2023-05-09T11:42:24;3.75;;;1.88;;
21424;SDS011;10873;51.132;16.848;2023-05-09T11:44:52;3.22;;;1.98;;
21424;SDS011;10873;51.132;16.848;2023-05-09T11:47:18;2.92;;;1.70;;
21424;SDS011;10873;51.132;16.848;2023-05-09T11:49:47;3.30;;;1.90;;
21424;SDS011;10873;51.132;16.848;2023-05-09T11:52:14;3.65;;;2.03;;
21424;SDS011;10873;51.132;16.848;2023-05-09T11:54:40;2.45;;;1.60;;
21424;SDS011;10873;51.132;16.848;2023-05-09T11:57:06;3.22;;;1.70;;
21424;SDS011;10873;51.132;16.848;2023-05-09T11:59:33;3.67;;;1.80;;
21424;SDS011;10873;51.132;16.848;2023-05-09T12:02:01;2.63;;;1.63;;
21424;SDS011;10873;51.132;16.848;2023-05-09T12:04:29;4.40;;;1.90;;
21424;SDS011;10873;51.132;16.848;2023-05-09T12:06:58;1.70;;;1.60;;
21424;SDS011;10873;51.132;16.848;2023-05-09T12:09:28;3.28;;;1.83;;
21424;SDS011;10873;51.132;16.848;2023-05-09T12:11:55;2.83;;;1.85;;
21424;SDS011;10873;51.132;16.848;2023-05-09T12:14:25;2.13;;;1.80;;
21424;SDS011;10873;51.132;16.848;2023-05-09T12:16:52;7.43;;;2.10;;
21424;SDS011;10873;51.132;16.848;2023-05-09T12:19:18;1.75;;;1.60;;
21424;SDS011;10873;51.132;16.848;2023-05-09T12:21:45;2.63;;;1.80;;
21424;SDS011;10873;51.132;16.848;2023-05-09T12:24:12;3.05;;;1.67;;
21424;SDS011;10873;51.132;16.848;2023-05-09T12:26:38;2.47;;;1.95;;
21424;SDS011;10873;51.132;16.848;2023-05-09T12:29:04;5.72;;;1.92;;
21424;SDS011;10873;51.132;16.848;2023-05-09T12:31:31;2.45;;;1.80;;
21424;SDS011;10873;51.132;16.848;2023-05-09T12:33:57;2.67;;;1.83;;
21424;SDS011;10873;51.132;16.848;2023-05-09T12:36:23;3.90;;;1.80;;
21424;SDS011;10873;51.132;16.848;2023-05-09T12:38:52;4.53;;;1.73;;
21424;SDS011;10873;51.132;16.848;2023-05-09T12:41:21;1.75;;;1.40;;
21424;SDS011;10873;51.132;16.848;2023-05-09T12:43:48;4.80;;;1.77;;
21424;SDS011;10873;51.132;16.848;2023-05-09T12:46:16;2.55;;;1.70;;
21424;SDS011;10873;51.132;16.848;2023-05-09T12:48:43;2.75;;;1.63;;
21424;SDS011;10873;51.132;16.848;2023-05-09T12:51:09;2.28;;;1.73;;
21424;SDS011;10873;51.132;16.848;2023-05-09T12:53:39;1.92;;;1.73;;
21424;SDS011;10873;51.132;16.848;2023-05-09T12:56:10;3.67;;;1.65;;
21424;SDS011;10873;51.132;16.848;2023-05-09T12:58:46;2.60;;;1.67;;
21424;SDS011;10873;51.132;16.848;2023-05-09T13:01:16;3.15;;;1.60;;
21424;SDS011;10873;51.132;16.848;2023-05-09T13:03:42;2.63;;;1.50;;
21424;SDS011;10873;51.132;16.848;2023-05-09T13:06:10;8.65;;;2.15;;
21424;SDS011;10873;51.132;16.848;2023-05-09T13:08:37;4.57;;;1.50;;
21424;SDS011;10873;51.132;16.848;2023-05-09T13:11:03;4.10;;;1.90;;
21424;SDS011;10873;51.132;16.848;2023-05-09T13:13:30;3.05;;;1.75;;
21424;SDS011;10873;51.132;16.848;2023-05-09T13:15:57;2.70;;;1.60;;
21424;SDS011;10873;51.132;16.848;2023-05-09T13:18:23;2.88;;;1.63;;
21424;SDS011;10873;51.132;16.848;2023-05-09T13:20:50;5.72;;;1.60;;
21424;SDS011;10873;51.132;16.848;2023-05-09T13:23:16;5.18;;;1.80;;
21424;SDS011;10873;51.132;16.848;2023-05-09T13:25:42;3.28;;;1.77;;
21424;SDS011;10873;51.132;16.848;2023-05-09T13:28:08;2.92;;;1.80;;
21424;SDS011;10873;51.132;16.848;2023-05-09T13:30:34;3.13;;;1.70;;
21424;SDS011;10873;51.132;16.848;2023-05-09T13:33:02;5.18;;;1.85;;
21424;SDS011;10873;51.132;16.848;2023-05-09T13:35:28;5.70;;;2.05;;
21424;SDS011;10873;51.132;16.848;2023-05-09T13:37:54;3.28;;;1.65;;
21424;SDS011;10873;51.132;16.848;2023-05-09T13:40:22;4.72;;;1.75;;
21424;SDS011;10873;51.132;16.848;2023-05-09T13:42:48;3.50;;;1.77;;
21424;SDS011;10873;51.132;16.848;2023-05-09T13:45:14;2.30;;;1.65;;
21424;SDS011;10873;51.132;16.848;2023-05-09T13:47:42;6.40;;;2.13;;
21424;SDS011;10873;51.132;16.848;2023-05-09T13:50:10;2.28;;;1.80;;
21424;SDS011;10873;51.132;16.848;2023-05-09T13:52:37;2.65;;;1.73;;
21424;SDS011;10873;51.132;16.848;2023-05-09T13:55:03;3.58;;;1.88;;
21424;SDS011;10873;51.132;16.848;2023-05-09T13:57:30;3.80;;;1.83;;
21424;SDS011;10873;51.132;16.848;2023-05-09T13:59:56;5.45;;;1.55;;
21424;SDS011;10873;51.132;16.848;2023-05-09T14:02:22;2.47;;;1.63;;
21424;SDS011;10873;51.132;16.848;2023-05-09T14:04:49;2.05;;;1.65;;
21424;SDS011;10873;51.132;16.848;2023-05-09T14:07:16;2.25;;;1.60;;
21424;SDS011;10873;51.132;16.848;2023-05-09T14:09:42;4.80;;;1.70;;
21424;SDS011;10873;51.132;16.848;2023-05-09T14:12:08;5.15;;;1.70;;
21424;SDS011;10873;51.132;16.848;2023-05-09T14:14:34;3.50;;;1.70;;
21424;SDS011;10873;51.132;16.848;2023-05-09T14:17:00;6.30;;;1.80;;
21424;SDS011;10873;51.132;16.848;2023-05-09T14:19:27;6.35;;;2.00;;
21424;SDS011;10873;51.132;16.848;2023-05-09T14:21:54;5.47;;;2.20;;
21424;SDS011;10873;51.132;16.848;2023-05-09T14:24:22;2.63;;;1.73;;
21424;SDS011;10873;51.132;16.848;2023-05-09T14:26:48;3.70;;;1.77;;
21424;SDS011;10873;51.132;16.848;2023-05-09T14:29:14;4.60;;;2.05;;
21424;SDS011;10873;51.132;16.848;2023-05-09T14:31:40;5.32;;;1.73;;
21424;SDS011;10873;51.132;16.848;2023-05-09T14:34:07;3.17;;;2.00;;
21424;SDS011;10873;51.132;16.848;2023-05-09T14:36:33;2.40;;;1.80;;
21424;SDS011;10873;51.132;16.848;2023-05-09T14:38:59;4.68;;;1.95;;
21424;SDS011;10873;51.132;16.848;2023-05-09T14:41:27;3.60;;;1.73;;
21424;SDS011;10873;51.132;16.848;2023-05-09T14:43:53;3.50;;;1.98;;
21424;SDS011;10873;51.132;16.848;2023-05-09T14:46:19;2.55;;;1.80;;